sensor_id;sensor_type;location;lat;lon;timestamp;pressure;altitude;pressure_sealevel;temperature;humidity
60170;BME280;46042;49.444;6.862;2023-06-14T00:01:14;98230.75;;;14.12;58.96
60170;BME280;46042;49.444;6.862;2023-06-14T00:03:41;98232.00;;;14.07;58.60
60170;BME280;46042;49.444;6.862;2023-06-14T00:06:08;98227.66;;;14.06;58.41
60170;BME280;46042;49.444;6.862;2023-06-14T00:08:34;98223.59;;;14.02;59.15
60170;BME280;46042;49.444;6.862;2023-06-14T00:11:01;98230.41;;;13.95;59.08
60170;BME280;46042;49.444;6.862;2023-06-14T00:13:28;98231.38;;;13.94;58.56
60170;BME280;46042;49.444;6.862;2023-06-14T00:15:54;98227.06;;;13.93;59.39
60170;BME280;46042;49.444;6.862;2023-06-14T00:18:22;98221.06;;;13.91;58.60
60170;BME280;46042;49.444;6.862;2023-06-14T00:20:50;98229.97;;;13.90;58.66
60170;BME280;46042;49.444;6.862;2023-06-14T00:23:18;98225.66;;;13.89;58.39
60170;BME280;46042;49.444;6.862;2023-06-14T00:25:45;98228.53;;;13.86;59.12
60170;BME280;46042;49.444;6.862;2023-06-14T00:28:11;98223.41;;;13.84;59.92
60170;BME280;46042;49.444;6.862;2023-06-14T00:30:38;98229.47;;;13.75;58.76
60170;BME280;46042;49.444;6.862;2023-06-14T00:33:05;98224.16;;;13.75;60.59
60170;BME280;46042;49.444;6.862;2023-06-14T00:35:32;98227.34;;;13.69;59.43
60170;BME280;46042;49.444;6.862;2023-06-14T00:37:58;98230.72;;;13.71;58.89
60170;BME280;46042;49.444;6.862;2023-06-14T00:40:26;98228.59;;;13.64;59.19
60170;BME280;46042;49.444;6.862;2023-06-14T00:42:52;98223.56;;;13.61;59.81
60170;BME280;46042;49.444;6.862;2023-06-14T00:45:19;98229.09;;;13.58;60.12
60170;BME280;46042;49.444;6.862;2023-06-14T00:47:46;98230.22;;;13.56;60.41
60170;BME280;46042;49.444;6.862;2023-06-14T00:50:14;98232.41;;;13.50;60.08
60170;BME280;46042;49.444;6.862;2023-06-14T00:52:41;98235.56;;;13.44;61.79
60170;BME280;46042;49.444;6.862;2023-06-14T00:55:08;98241.22;;;13.40;61.00
60170;BME280;46042;49.444;6.862;2023-06-14T00:57:35;98233.53;;;13.36;62.20
60170;BME280;46042;49.444;6.862;2023-06-14T01:00:04;98236.31;;;13.35;60.74
60170;BME280;46042;49.444;6.862;2023-06-14T01:02:38;98241.59;;;13.35;61.30
60170;BME280;46042;49.444;6.862;2023-06-14T01:05:06;98240.88;;;13.33;61.06
60170;BME280;46042;49.444;6.862;2023-06-14T01:10:35;98251.13;;;13.26;61.01
60170;BME280;46042;49.444;6.862;2023-06-14T01:13:21;98250.44;;;13.24;61.45
60170;BME280;46042;49.444;6.862;2023-06-14T01:15:50;98249.72;;;13.22;61.67
60170;BME280;46042;49.444;6.862;2023-06-14T01:18:17;98254.56;;;13.17;61.70
60170;BME280;46042;49.444;6.862;2023-06-14T01:20:46;98252.44;;;13.11;62.55
60170;BME280;46042;49.444;6.862;2023-06-14T01:23:17;98249.78;;;13.11;61.26
60170;BME280;46042;49.444;6.862;2023-06-14T01:25:44;98250.16;;;13.06;61.83
60170;BME280;46042;49.444;6.862;2023-06-14T01:28:12;98250.28;;;13.04;61.14
60170;BME280;46042;49.444;6.862;2023-06-14T01:30:40;98251.25;;;13.03;61.32
60170;BME280;46042;49.444;6.862;2023-06-14T01:33:13;98253.31;;;13.00;62.09
60170;BME280;46042;49.444;6.862;2023-06-14T01:35:47;98249.25;;;12.95;61.75
60170;BME280;46042;49.444;6.862;2023-06-14T01:38:14;98257.44;;;12.92;62.95
60170;BME280;46042;49.444;6.862;2023-06-14T01:40:43;98253.81;;;12.93;61.75
60170;BME280;46042;49.444;6.862;2023-06-14T01:43:13;98258.66;;;12.88;63.04
60170;BME280;46042;49.444;6.862;2023-06-14T01:45:42;98254.31;;;12.87;62.55
60170;BME280;46042;49.444;6.862;2023-06-14T01:48:09;98254.69;;;12.83;62.70
60170;BME280;46042;49.444;6.862;2023-06-14T01:50:36;98256.88;;;12.77;63.44
60170;BME280;46042;49.444;6.862;2023-06-14T01:53:07;98259.91;;;12.73;64.69
60170;BME280;46042;49.444;6.862;2023-06-14T01:55:34;98252.78;;;12.73;63.88
60170;BME280;46042;49.444;6.862;2023-06-14T01:58:06;98252.44;;;12.66;64.46
60170;BME280;46042;49.444;6.862;2023-06-14T02:00:33;98249.34;;;12.61;65.08
60170;BME280;46042;49.444;6.862;2023-06-14T02:02:59;98255.34;;;12.63;64.45
60170;BME280;46042;49.444;6.862;2023-06-14T02:05:26;98248.88;;;12.56;63.89
60170;BME280;46042;49.444;6.862;2023-06-14T02:07:53;98259.47;;;12.56;65.32
60170;BME280;46042;49.444;6.862;2023-06-14T02:10:20;98258.25;;;12.49;65.51
60170;BME280;46042;49.444;6.862;2023-06-14T02:12:47;98254.78;;;12.48;65.25
60170;BME280;46042;49.444;6.862;2023-06-14T02:15:13;98258.41;;;12.47;65.66
60170;BME280;46042;49.444;6.862;2023-06-14T02:17:46;98256.00;;;12.44;63.79
60170;BME280;46042;49.444;6.862;2023-06-14T02:20:16;98253.63;;;12.30;66.96
60170;BME280;46042;49.444;6.862;2023-06-14T02:22:44;98256.72;;;12.23;66.74
60170;BME280;46042;49.444;6.862;2023-06-14T02:25:12;98262.38;;;12.19;67.46
60170;BME280;46042;49.444;6.862;2023-06-14T02:27:38;98258.44;;;12.25;66.23
60170;BME280;46042;49.444;6.862;2023-06-14T02:30:05;98256.00;;;12.21;67.18
60170;BME280;46042;49.444;6.862;2023-06-14T02:32:32;98256.41;;;12.17;67.52
60170;BME280;46042;49.444;6.862;2023-06-14T02:35:02;98261.44;;;12.20;66.16
60170;BME280;46042;49.444;6.862;2023-06-14T02:37:29;98262.28;;;12.09;68.32
60170;BME280;46042;49.444;6.862;2023-06-14T02:39:56;98255.78;;;12.13;67.58
60170;BME280;46042;49.444;6.862;2023-06-14T02:42:22;98268.13;;;12.13;67.64
60170;BME280;46042;49.444;6.862;2023-06-14T02:44:49;98265.63;;;12.11;67.31
60170;BME280;46042;49.444;6.862;2023-06-14T02:47:18;98261.19;;;12.12;67.26
60170;BME280;46042;49.444;6.862;2023-06-14T02:49:45;98263.00;;;12.11;68.93
60170;BME280;46042;49.444;6.862;2023-06-14T02:52:15;98262.38;;;12.07;68.92
60170;BME280;46042;49.444;6.862;2023-06-14T02:54:42;98262.50;;;12.06;68.37
60170;BME280;46042;49.444;6.862;2023-06-14T02:57:09;98264.41;;;12.04;68.01
60170;BME280;46042;49.444;6.862;2023-06-14T02:59:37;98263.69;;;12.02;68.27
60170;BME280;46042;49.444;6.862;2023-06-14T03:02:04;98258.03;;;11.95;69.78
60170;BME280;46042;49.444;6.862;2023-06-14T03:04:31;98266.19;;;11.92;67.97
60170;BME280;46042;49.444;6.862;2023-06-14T03:07:04;98267.50;;;11.86;69.50
60170;BME280;46042;49.444;6.862;2023-06-14T03:09:37;98265.72;;;11.87;69.79
60170;BME280;46042;49.444;6.862;2023-06-14T03:12:05;98267.63;;;11.85;68.94
60170;BME280;46042;49.444;6.862;2023-06-14T03:14:33;98270.38;;;11.83;67.63
60170;BME280;46042;49.444;6.862;2023-06-14T03:17:02;98273.16;;;11.81;67.97
60170;BME280;46042;49.444;6.862;2023-06-14T03:19:31;98271.59;;;11.79;69.18
60170;BME280;46042;49.444;6.862;2023-06-14T03:21:58;98270.88;;;11.77;68.79
60170;BME280;46042;49.444;6.862;2023-06-14T03:24:25;98273.50;;;11.77;68.37
60170;BME280;46042;49.444;6.862;2023-06-14T03:26:54;98274.47;;;11.76;69.32
60170;BME280;46042;49.444;6.862;2023-06-14T03:29:21;98275.41;;;11.75;68.61
60170;BME280;46042;49.444;6.862;2023-06-14T03:32:01;98273.75;;;11.74;67.56
60170;BME280;46042;49.444;6.862;2023-06-14T03:34:28;98274.69;;;11.73;69.38
60170;BME280;46042;49.444;6.862;2023-06-14T03:36:55;98279.13;;;11.72;70.07
60170;BME280;46042;49.444;6.862;2023-06-14T03:39:22;98282.25;;;11.66;68.39
60170;BME280;46042;49.444;6.862;2023-06-14T03:41:49;98284.03;;;11.65;69.55
60170;BME280;46042;49.444;6.862;2023-06-14T03:44:17;98288.47;;;11.65;70.25
60170;BME280;46042;49.444;6.862;2023-06-14T03:46:47;98285.66;;;11.55;71.36
60170;BME280;46042;49.444;6.862;2023-06-14T03:49:14;98286.28;;;11.59;70.69
60170;BME280;46042;49.444;6.862;2023-06-14T03:51:42;98288.81;;;11.60;68.25
60170;BME280;46042;49.444;6.862;2023-06-14T03:54:09;98285.47;;;11.58;69.66
60170;BME280;46042;49.444;6.862;2023-06-14T03:56:56;98287.25;;;11.58;69.39
60170;BME280;46042;49.444;6.862;2023-06-14T03:59:23;98288.31;;;11.55;72.08
60170;BME280;46042;49.444;6.862;2023-06-14T04:01:50;98296.22;;;11.55;70.87
60170;BME280;46042;49.444;6.862;2023-06-14T04:04:17;98305.72;;;11.58;70.75
60170;BME280;46042;49.444;6.862;2023-06-14T04:06:44;98308.59;;;11.55;71.89
60170;BME280;46042;49.444;6.862;2023-06-14T04:09:14;98308.44;;;11.45;73.58
60170;BME280;46042;49.444;6.862;2023-06-14T04:11:41;98316.75;;;11.51;70.20
60170;BME280;46042;49.444;6.862;2023-06-14T04:14:07;98309.66;;;11.52;71.09
60170;BME280;46042;49.444;6.862;2023-06-14T04:16:34;98312.91;;;11.56;73.66
60170;BME280;46042;49.444;6.862;2023-06-14T04:19:01;98309.31;;;11.57;73.32
60170;BME280;46042;49.444;6.862;2023-06-14T04:21:28;98320.19;;;11.52;75.53
60170;BME280;46042;49.444;6.862;2023-06-14T04:23:55;98315.66;;;11.54;73.25
60170;BME280;46042;49.444;6.862;2023-06-14T04:26:22;98320.59;;;11.59;74.21
60170;BME280;46042;49.444;6.862;2023-06-14T04:28:53;98327.38;;;11.50;72.76
60170;BME280;46042;49.444;6.862;2023-06-14T04:31:19;98330.50;;;11.55;72.29
60170;BME280;46042;49.444;6.862;2023-06-14T04:33:48;98328.88;;;11.65;74.55
60170;BME280;46042;49.444;6.862;2023-06-14T04:36:17;98324.84;;;11.73;74.88
60170;BME280;46042;49.444;6.862;2023-06-14T04:38:44;98328.41;;;11.72;74.86
60170;BME280;46042;49.444;6.862;2023-06-14T04:41:12;98326.28;;;11.77;72.97
60170;BME280;46042;49.444;6.862;2023-06-14T04:43:39;98322.81;;;11.88;71.68
60170;BME280;46042;49.444;6.862;2023-06-14T04:46:06;98338.88;;;11.96;70.91
60170;BME280;46042;49.444;6.862;2023-06-14T04:48:38;98333.41;;;11.99;70.33
60170;BME280;46042;49.444;6.862;2023-06-14T04:51:10;98332.00;;;12.06;70.17
60170;BME280;46042;49.444;6.862;2023-06-14T04:53:36;98335.00;;;12.13;70.67
60170;BME280;46042;49.444;6.862;2023-06-14T04:56:04;98338.84;;;12.20;70.56
60170;BME280;46042;49.444;6.862;2023-06-14T04:58:30;98350.38;;;12.31;71.14
60170;BME280;46042;49.444;6.862;2023-06-14T05:00:58;98345.47;;;12.37;70.50
60170;BME280;46042;49.444;6.862;2023-06-14T05:03:25;98346.63;;;12.45;68.67
60170;BME280;46042;49.444;6.862;2023-06-14T05:05:53;98344.13;;;12.55;69.28
60170;BME280;46042;49.444;6.862;2023-06-14T05:08:21;98347.00;;;12.63;70.93
60170;BME280;46042;49.444;6.862;2023-06-14T05:10:50;98340.84;;;12.74;68.90
60170;BME280;46042;49.444;6.862;2023-06-14T05:13:17;98336.38;;;12.86;69.89
60170;BME280;46042;49.444;6.862;2023-06-14T05:15:44;98336.13;;;13.00;67.96
60170;BME280;46042;49.444;6.862;2023-06-14T05:18:11;98329.69;;;13.14;67.54
60170;BME280;46042;49.444;6.862;2023-06-14T05:20:40;98331.22;;;13.28;67.56
60170;BME280;46042;49.444;6.862;2023-06-14T05:23:09;98333.00;;;13.39;66.96
60170;BME280;46042;49.444;6.862;2023-06-14T05:25:45;98337.16;;;13.53;67.41
60170;BME280;46042;49.444;6.862;2023-06-14T05:28:12;98339.06;;;13.62;66.46
60170;BME280;46042;49.444;6.862;2023-06-14T05:30:39;98334.66;;;13.73;67.63
60170;BME280;46042;49.444;6.862;2023-06-14T05:33:06;98345.19;;;13.84;66.87
60170;BME280;46042;49.444;6.862;2023-06-14T05:35:33;98344.84;;;13.99;67.91
60170;BME280;46042;49.444;6.862;2023-06-14T05:38:00;98339.97;;;14.25;65.26
60170;BME280;46042;49.444;6.862;2023-06-14T05:40:26;98344.66;;;14.43;65.44
60170;BME280;46042;49.444;6.862;2023-06-14T05:42:53;98350.13;;;14.61;65.89
60170;BME280;46042;49.444;6.862;2023-06-14T05:45:20;98352.34;;;14.87;65.82
60170;BME280;46042;49.444;6.862;2023-06-14T05:47:46;98354.75;;;15.10;63.83
60170;BME280;46042;49.444;6.862;2023-06-14T05:50:14;98361.75;;;15.40;61.19
60170;BME280;46042;49.444;6.862;2023-06-14T05:52:40;98367.50;;;15.65;61.94
60170;BME280;46042;49.444;6.862;2023-06-14T05:55:07;98360.50;;;15.84;61.25
60170;BME280;46042;49.444;6.862;2023-06-14T05:57:34;98357.72;;;16.05;60.69
60170;BME280;46042;49.444;6.862;2023-06-14T06:00:02;98356.34;;;16.39;58.62
60170;BME280;46042;49.444;6.862;2023-06-14T06:02:36;98356.81;;;16.62;63.05
60170;BME280;46042;49.444;6.862;2023-06-14T06:05:03;98358.25;;;16.84;56.89
60170;BME280;46042;49.444;6.862;2023-06-14T06:07:30;98357.16;;;17.05;55.18
60170;BME280;46042;49.444;6.862;2023-06-14T06:09:56;98355.22;;;17.25;54.29
60170;BME280;46042;49.444;6.862;2023-06-14T06:12:23;98355.75;;;17.47;54.30
60170;BME280;46042;49.444;6.862;2023-06-14T06:14:50;98363.75;;;17.65;52.07
60170;BME280;46042;49.444;6.862;2023-06-14T06:17:16;98363.88;;;17.82;52.69
60170;BME280;46042;49.444;6.862;2023-06-14T06:19:43;98371.81;;;18.00;51.91
60170;BME280;46042;49.444;6.862;2023-06-14T06:22:10;98365.81;;;18.16;51.77
60170;BME280;46042;49.444;6.862;2023-06-14T06:24:37;98373.59;;;18.36;51.99
60170;BME280;46042;49.444;6.862;2023-06-14T06:27:04;98377.34;;;18.51;49.97
60170;BME280;46042;49.444;6.862;2023-06-14T06:29:31;98384.72;;;18.66;49.92
60170;BME280;46042;49.444;6.862;2023-06-14T06:31:57;98372.81;;;18.86;50.49
60170;BME280;46042;49.444;6.862;2023-06-14T06:34:24;98387.56;;;18.99;49.86
60170;BME280;46042;49.444;6.862;2023-06-14T06:36:51;98382.41;;;19.05;49.10
60170;BME280;46042;49.444;6.862;2023-06-14T06:39:17;98388.47;;;19.24;48.41
60170;BME280;46042;49.444;6.862;2023-06-14T06:41:44;98386.34;;;19.36;47.62
60170;BME280;46042;49.444;6.862;2023-06-14T06:44:11;98391.72;;;19.53;48.70
60170;BME280;46042;49.444;6.862;2023-06-14T06:46:39;98392.38;;;19.71;46.58
60170;BME280;46042;49.444;6.862;2023-06-14T06:49:08;98397.22;;;19.84;46.85
60170;BME280;46042;49.444;6.862;2023-06-14T06:51:35;98394.56;;;20.09;49.29
60170;BME280;46042;49.444;6.862;2023-06-14T06:54:05;98400.03;;;20.32;45.74
60170;BME280;46042;49.444;6.862;2023-06-14T06:56:32;98405.56;;;20.48;48.55
60170;BME280;46042;49.444;6.862;2023-06-14T06:58:59;98399.66;;;20.60;46.73
60170;BME280;46042;49.444;6.862;2023-06-14T07:01:25;98395.94;;;20.70;44.39
60170;BME280;46042;49.444;6.862;2023-06-14T07:03:55;98394.91;;;20.71;43.53
60170;BME280;46042;49.444;6.862;2023-06-14T07:06:22;98402.44;;;20.75;44.07
60170;BME280;46042;49.444;6.862;2023-06-14T07:08:48;98398.56;;;20.86;44.24
60170;BME280;46042;49.444;6.862;2023-06-14T07:11:15;98400.38;;;21.02;43.91
60170;BME280;46042;49.444;6.862;2023-06-14T07:13:42;98404.88;;;21.02;43.25
60170;BME280;46042;49.444;6.862;2023-06-14T07:16:08;98407.09;;;21.22;43.45
60170;BME280;46042;49.444;6.862;2023-06-14T07:18:35;98413.72;;;21.42;44.87
60170;BME280;46042;49.444;6.862;2023-06-14T07:21:03;98413.03;;;21.72;42.66
60170;BME280;46042;49.444;6.862;2023-06-14T07:23:30;98402.34;;;21.87;43.84
60170;BME280;46042;49.444;6.862;2023-06-14T07:25:57;98405.25;;;22.00;43.18
60170;BME280;46042;49.444;6.862;2023-06-14T07:28:23;98398.47;;;22.13;43.37
60170;BME280;46042;49.444;6.862;2023-06-14T07:30:50;98399.50;;;22.42;42.55
60170;BME280;46042;49.444;6.862;2023-06-14T07:33:17;98402.78;;;22.67;42.74
60170;BME280;46042;49.444;6.862;2023-06-14T07:35:44;98403.31;;;23.08;46.39
60170;BME280;46042;49.444;6.862;2023-06-14T07:38:10;98400.88;;;23.28;42.63
60170;BME280;46042;49.444;6.862;2023-06-14T07:40:37;98401.47;;;23.45;43.78
60170;BME280;46042;49.444;6.862;2023-06-14T07:43:04;98403.75;;;23.63;41.05
60170;BME280;46042;49.444;6.862;2023-06-14T07:45:30;98411.25;;;23.96;45.90
60170;BME280;46042;49.444;6.862;2023-06-14T07:47:57;98413.06;;;24.11;42.11
60170;BME280;46042;49.444;6.862;2023-06-14T07:50:24;98412.63;;;24.07;41.19
60170;BME280;46042;49.444;6.862;2023-06-14T07:52:51;98410.13;;;24.34;39.56
60170;BME280;46042;49.444;6.862;2023-06-14T07:55:18;98405.19;;;24.73;43.22
60170;BME280;46042;49.444;6.862;2023-06-14T07:57:45;98406.88;;;24.74;38.10
60170;BME280;46042;49.444;6.862;2023-06-14T08:00:12;98404.13;;;24.67;39.19
60170;BME280;46042;49.444;6.862;2023-06-14T08:02:42;98405.78;;;24.05;36.94
60170;BME280;46042;49.444;6.862;2023-06-14T08:05:11;98400.63;;;24.74;47.29
60170;BME280;46042;49.444;6.862;2023-06-14T08:07:39;98395.72;;;25.26;46.22
60170;BME280;46042;49.444;6.862;2023-06-14T08:10:06;98394.09;;;25.45;40.39
60170;BME280;46042;49.444;6.862;2023-06-14T08:12:33;98389.50;;;25.39;37.44
60170;BME280;46042;49.444;6.862;2023-06-14T08:15:01;98392.94;;;25.75;38.52
60170;BME280;46042;49.444;6.862;2023-06-14T08:17:34;98396.25;;;25.83;38.36
60170;BME280;46042;49.444;6.862;2023-06-14T08:20:02;98396.66;;;26.14;39.04
60170;BME280;46042;49.444;6.862;2023-06-14T08:22:30;98400.22;;;26.08;36.63
60170;BME280;46042;49.444;6.862;2023-06-14T08:25:00;98400.19;;;25.81;33.86
60170;BME280;46042;49.444;6.862;2023-06-14T08:27:27;98402.91;;;26.15;35.50
60170;BME280;46042;49.444;6.862;2023-06-14T08:29:56;98402.50;;;26.04;35.00
60170;BME280;46042;49.444;6.862;2023-06-14T08:32:23;98391.28;;;26.41;35.98
60170;BME280;46042;49.444;6.862;2023-06-14T08:34:50;98400.75;;;26.70;36.06
60170;BME280;46042;49.444;6.862;2023-06-14T08:37:30;98390.22;;;27.15;39.65
60170;BME280;46042;49.444;6.862;2023-06-14T08:39:57;98390.91;;;27.42;35.71
60170;BME280;46042;49.444;6.862;2023-06-14T08:42:24;98391.06;;;27.86;35.22
60170;BME280;46042;49.444;6.862;2023-06-14T08:44:52;98394.91;;;27.72;33.42
60170;BME280;46042;49.444;6.862;2023-06-14T08:47:19;98396.88;;;27.51;34.93
60170;BME280;46042;49.444;6.862;2023-06-14T08:49:47;98396.00;;;27.25;33.08
60170;BME280;46042;49.444;6.862;2023-06-14T08:52:19;98395.16;;;27.70;37.12
60170;BME280;46042;49.444;6.862;2023-06-14T08:54:47;98400.13;;;27.73;34.68
60170;BME280;46042;49.444;6.862;2023-06-14T08:57:15;98402.69;;;27.61;31.43
60170;BME280;46042;49.444;6.862;2023-06-14T08:59:47;98397.88;;;27.95;34.00
60170;BME280;46042;49.444;6.862;2023-06-14T09:02:19;98403.88;;;27.97;32.74
60170;BME280;46042;49.444;6.862;2023-06-14T09:04:48;98407.00;;;28.01;31.88
60170;BME280;46042;49.444;6.862;2023-06-14T09:07:18;98404.50;;;28.25;34.02
60170;BME280;46042;49.444;6.862;2023-06-14T09:09:45;98408.47;;;28.66;36.75
60170;BME280;46042;49.444;6.862;2023-06-14T09:12:31;98412.22;;;28.47;29.15
60170;BME280;46042;49.444;6.862;2023-06-14T09:14:58;98415.13;;;28.71;31.95
60170;BME280;46042;49.444;6.862;2023-06-14T09:17:26;98419.19;;;28.99;34.74
60170;BME280;46042;49.444;6.862;2023-06-14T09:19:55;98431.53;;;29.13;35.32
60170;BME280;46042;49.444;6.862;2023-06-14T09:22:22;98413.31;;;29.20;36.13
60170;BME280;46042;49.444;6.862;2023-06-14T09:24:48;98428.28;;;29.23;33.94
60170;BME280;46042;49.444;6.862;2023-06-14T09:27:15;98413.84;;;29.41;33.87
60170;BME280;46042;49.444;6.862;2023-06-14T09:29:42;98422.91;;;29.35;30.13
60170;BME280;46042;49.444;6.862;2023-06-14T09:32:09;98413.84;;;29.72;32.58
60170;BME280;46042;49.444;6.862;2023-06-14T09:34:36;98419.63;;;30.18;31.90
60170;BME280;46042;49.444;6.862;2023-06-14T09:37:03;98428.53;;;29.83;29.46
60170;BME280;46042;49.444;6.862;2023-06-14T09:39:31;98422.75;;;29.79;30.07
60170;BME280;46042;49.444;6.862;2023-06-14T09:41:57;98423.84;;;29.59;27.46
60170;BME280;46042;49.444;6.862;2023-06-14T09:44:25;98423.84;;;29.59;31.57
60170;BME280;46042;49.444;6.862;2023-06-14T09:46:55;98422.66;;;29.98;28.80
60170;BME280;46042;49.444;6.862;2023-06-14T09:49:22;98421.94;;;29.48;27.23
60170;BME280;46042;49.444;6.862;2023-06-14T09:51:51;98432.50;;;29.19;27.69
60170;BME280;46042;49.444;6.862;2023-06-14T09:54:22;98423.00;;;29.28;32.18
60170;BME280;46042;49.444;6.862;2023-06-14T09:56:50;98422.56;;;30.04;30.17
60170;BME280;46042;49.444;6.862;2023-06-14T09:59:22;98428.88;;;30.41;30.00
60170;BME280;46042;49.444;6.862;2023-06-14T10:01:57;98423.66;;;30.51;31.01
60170;BME280;46042;49.444;6.862;2023-06-14T10:04:28;98434.31;;;30.64;33.05
60170;BME280;46042;49.444;6.862;2023-06-14T10:06:56;98433.09;;;30.13;25.43
60170;BME280;46042;49.444;6.862;2023-06-14T10:09:23;98422.22;;;30.25;27.21
60170;BME280;46042;49.444;6.862;2023-06-14T10:11:51;98418.69;;;30.84;27.47
60170;BME280;46042;49.444;6.862;2023-06-14T10:14:18;98426.00;;;30.83;27.21
60170;BME280;46042;49.444;6.862;2023-06-14T10:16:57;98427.72;;;29.94;24.91
60170;BME280;46042;49.444;6.862;2023-06-14T10:19:32;98423.47;;;29.98;28.85
60170;BME280;46042;49.444;6.862;2023-06-14T10:22:12;98423.66;;;30.63;34.25
60170;BME280;46042;49.444;6.862;2023-06-14T10:24:45;98418.97;;;31.52;35.01
60170;BME280;46042;49.444;6.862;2023-06-14T10:27:15;98411.88;;;31.51;29.87
60170;BME280;46042;49.444;6.862;2023-06-14T10:32:24;98418.03;;;31.92;29.36
60170;BME280;46042;49.444;6.862;2023-06-14T10:34:59;98411.75;;;31.92;24.80
60170;BME280;46042;49.444;6.862;2023-06-14T10:37:26;98412.63;;;30.93;30.12
60170;BME280;46042;49.444;6.862;2023-06-14T10:39:53;98407.09;;;30.05;27.95
60170;BME280;46042;49.444;6.862;2023-06-14T10:42:20;98406.19;;;31.12;33.15
60170;BME280;46042;49.444;6.862;2023-06-14T10:44:50;98410.88;;;30.16;24.95
60170;BME280;46042;49.444;6.862;2023-06-14T10:47:34;98416.22;;;30.34;31.01
60170;BME280;46042;49.444;6.862;2023-06-14T10:50:09;98411.72;;;30.28;25.05
60170;BME280;46042;49.444;6.862;2023-06-14T10:52:38;98414.97;;;31.02;27.45
60170;BME280;46042;49.444;6.862;2023-06-14T10:55:12;98407.22;;;31.52;27.98
60170;BME280;46042;49.444;6.862;2023-06-14T10:57:42;98414.69;;;31.56;28.32
60170;BME280;46042;49.444;6.862;2023-06-14T11:00:22;98413.69;;;31.62;26.04
60170;BME280;46042;49.444;6.862;2023-06-14T11:08:40;98405.44;;;31.74;29.25
60170;BME280;46042;49.444;6.862;2023-06-14T11:11:13;98411.16;;;30.74;24.09
60170;BME280;46042;49.444;6.862;2023-06-14T11:13:45;98408.59;;;31.37;25.47
60170;BME280;46042;49.444;6.862;2023-06-14T11:16:16;98412.44;;;30.71;25.22
60170;BME280;46042;49.444;6.862;2023-06-14T11:18:45;98402.38;;;30.72;27.87
60170;BME280;46042;49.444;6.862;2023-06-14T11:21:18;98398.00;;;31.53;29.45
60170;BME280;46042;49.444;6.862;2023-06-14T11:23:52;98396.06;;;32.16;28.32
60170;BME280;46042;49.444;6.862;2023-06-14T11:26:26;98412.00;;;32.59;25.87
60170;BME280;46042;49.444;6.862;2023-06-14T11:28:58;98406.47;;;32.93;25.52
60170;BME280;46042;49.444;6.862;2023-06-14T11:31:27;98395.59;;;33.20;28.07
60170;BME280;46042;49.444;6.862;2023-06-14T11:33:55;98383.41;;;33.56;31.33
60170;BME280;46042;49.444;6.862;2023-06-14T11:36:26;98396.69;;;33.47;27.73
60170;BME280;46042;49.444;6.862;2023-06-14T11:39:03;98403.03;;;33.03;24.64
60170;BME280;46042;49.444;6.862;2023-06-14T11:41:34;98401.38;;;32.40;24.66
60170;BME280;46042;49.444;6.862;2023-06-14T11:44:01;98403.06;;;32.86;24.06
60170;BME280;46042;49.444;6.862;2023-06-14T11:46:29;98386.41;;;32.43;22.84
60170;BME280;46042;49.444;6.862;2023-06-14T11:48:56;98388.31;;;31.91;23.62
60170;BME280;46042;49.444;6.862;2023-06-14T11:51:22;98386.31;;;31.23;24.36
60170;BME280;46042;49.444;6.862;2023-06-14T11:53:49;98384.16;;;31.25;25.93
60170;BME280;46042;49.444;6.862;2023-06-14T11:56:16;98386.97;;;31.59;25.86
60170;BME280;46042;49.444;6.862;2023-06-14T11:58:43;98390.22;;;32.07;28.10
60170;BME280;46042;49.444;6.862;2023-06-14T12:01:15;98378.00;;;32.10;24.65
60170;BME280;46042;49.444;6.862;2023-06-14T12:03:49;98380.59;;;32.96;29.86
60170;BME280;46042;49.444;6.862;2023-06-14T12:06:26;98386.19;;;33.11;23.26
60170;BME280;46042;49.444;6.862;2023-06-14T12:08:56;98383.66;;;32.82;23.57
60170;BME280;46042;49.444;6.862;2023-06-14T12:11:23;98383.47;;;32.10;24.50
60170;BME280;46042;49.444;6.862;2023-06-14T12:13:50;98386.84;;;32.00;23.38
60170;BME280;46042;49.444;6.862;2023-06-14T12:16:17;98383.78;;;32.70;27.30
60170;BME280;46042;49.444;6.862;2023-06-14T12:18:43;98388.59;;;33.30;25.21
60170;BME280;46042;49.444;6.862;2023-06-14T12:21:10;98395.31;;;32.77;25.73
60170;BME280;46042;49.444;6.862;2023-06-14T12:23:48;98388.81;;;32.39;29.20
60170;BME280;46042;49.444;6.862;2023-06-14T12:26:19;98386.00;;;32.34;25.26
60170;BME280;46042;49.444;6.862;2023-06-14T12:28:47;98382.66;;;33.11;26.74
60170;BME280;46042;49.444;6.862;2023-06-14T12:31:15;98384.66;;;33.20;22.97
60170;BME280;46042;49.444;6.862;2023-06-14T12:33:43;98381.59;;;33.67;26.58
60170;BME280;46042;49.444;6.862;2023-06-14T12:36:13;98379.13;;;33.65;22.29
60170;BME280;46042;49.444;6.862;2023-06-14T12:38:39;98379.28;;;33.03;22.81
60170;BME280;46042;49.444;6.862;2023-06-14T12:41:06;98380.13;;;33.04;26.05
60170;BME280;46042;49.444;6.862;2023-06-14T12:43:34;98385.97;;;31.65;23.57
60170;BME280;46042;49.444;6.862;2023-06-14T12:46:01;98382.78;;;31.11;26.96
60170;BME280;46042;49.444;6.862;2023-06-14T12:48:27;98385.59;;;31.16;26.56
60170;BME280;46042;49.444;6.862;2023-06-14T12:50:57;98384.47;;;32.04;27.62
60170;BME280;46042;49.444;6.862;2023-06-14T12:53:23;98388.28;;;32.82;26.78
60170;BME280;46042;49.444;6.862;2023-06-14T12:55:50;98384.03;;;32.69;24.63
60170;BME280;46042;49.444;6.862;2023-06-14T12:58:17;98384.09;;;32.74;24.38
60170;BME280;46042;49.444;6.862;2023-06-14T13:00:46;98385.00;;;33.02;25.14
60170;BME280;46042;49.444;6.862;2023-06-14T13:03:13;98381.94;;;33.20;25.88
60170;BME280;46042;49.444;6.862;2023-06-14T13:05:40;98377.63;;;31.55;23.93
60170;BME280;46042;49.444;6.862;2023-06-14T13:08:08;98391.03;;;32.25;26.72
60170;BME280;46042;49.444;6.862;2023-06-14T13:10:35;98389.81;;;31.35;23.34
60170;BME280;46042;49.444;6.862;2023-06-14T13:13:02;98385.59;;;30.75;25.63
60170;BME280;46042;49.444;6.862;2023-06-14T13:15:29;98374.91;;;31.84;25.69
60170;BME280;46042;49.444;6.862;2023-06-14T13:17:56;98382.47;;;31.99;25.58